sensor_id;sensor_type;location;lat;lon;timestamp;P1;durP1;ratioP1;P2;durP2;ratioP2
50689;SDS011;54375;48.298;11.238;2023-05-19T00:15:13;14.45;;;5.53;;
50689;SDS011;54375;48.298;11.238;2023-05-19T00:30:16;13.18;;;5.85;;
50689;SDS011;54375;48.298;11.238;2023-05-19T00:45:18;11.00;;;5.40;;
50689;SDS011;54375;48.298;11.238;2023-05-19T01:00:20;12.15;;;5.28;;
50689;SDS011;54375;48.298;11.238;2023-05-19T01:15:24;15.13;;;5.70;;
50689;SDS011;54375;48.298;11.238;2023-05-19T01:45:38;12.00;;;5.20;;
50689;SDS011;54375;48.298;11.238;2023-05-19T02:46:12;9.07;;;5.43;;
50689;SDS011;54375;48.298;11.238;2023-05-19T03:01:14;14.02;;;5.60;;
50689;SDS011;54375;48.298;11.238;2023-05-19T03:16:16;12.73;;;6.20;;
50689;SDS011;54375;48.298;11.238;2023-05-19T03:31:18;10.63;;;5.63;;
50689;SDS011;54375;48.298;11.238;2023-05-19T03:46:21;10.57;;;5.68;;
50689;SDS011;54375;48.298;11.238;2023-05-19T04:01:24;13.45;;;6.22;;
50689;SDS011;54375;48.298;11.238;2023-05-19T04:16:26;10.70;;;6.18;;
50689;SDS011;54375;48.298;11.238;2023-05-19T04:31:28;12.10;;;6.35;;
50689;SDS011;54375;48.298;11.238;2023-05-19T04:46:30;12.85;;;6.28;;
50689;SDS011;54375;48.298;11.238;2023-05-19T05:01:32;13.32;;;6.18;;
50689;SDS011;54375;48.298;11.238;2023-05-19T05:16:35;15.13;;;6.90;;
50689;SDS011;54375;48.298;11.238;2023-05-19T05:31:37;15.73;;;6.65;;
50689;SDS011;54375;48.298;11.238;2023-05-19T05:46:40;15.15;;;7.82;;
50689;SDS011;54375;48.298;11.238;2023-05-19T06:01:42;17.95;;;7.97;;
50689;SDS011;54375;48.298;11.238;2023-05-19T06:16:45;15.90;;;7.93;;
50689;SDS011;54375;48.298;11.238;2023-05-19T06:31:47;14.07;;;8.13;;
50689;SDS011;54375;48.298;11.238;2023-05-19T06:46:49;16.77;;;8.02;;
50689;SDS011;54375;48.298;11.238;2023-05-19T07:01:52;13.35;;;7.43;;
50689;SDS011;54375;48.298;11.238;2023-05-19T07:16:54;11.90;;;6.88;;
50689;SDS011;54375;48.298;11.238;2023-05-19T07:31:56;11.63;;;7.45;;
50689;SDS011;54375;48.298;11.238;2023-05-19T07:46:59;16.85;;;7.70;;
50689;SDS011;54375;48.298;11.238;2023-05-19T08:02:02;13.73;;;6.93;;
50689;SDS011;54375;48.298;11.238;2023-05-19T08:17:04;12.18;;;7.18;;
50689;SDS011;54375;48.298;11.238;2023-05-19T08:32:07;21.67;;;7.43;;
50689;SDS011;54375;48.298;11.238;2023-05-19T08:47:09;17.40;;;7.40;;
50689;SDS011;54375;48.298;11.238;2023-05-19T09:02:13;11.15;;;6.85;;
50689;SDS011;54375;48.298;11.238;2023-05-19T09:17:15;9.13;;;5.90;;
50689;SDS011;54375;48.298;11.238;2023-05-19T09:32:24;8.60;;;5.60;;
50689;SDS011;54375;48.298;11.238;2023-05-19T09:47:28;8.40;;;5.57;;
50689;SDS011;54375;48.298;11.238;2023-05-19T10:02:34;9.40;;;6.25;;
50689;SDS011;54375;48.298;11.238;2023-05-19T10:17:38;12.05;;;6.43;;
50689;SDS011;54375;48.298;11.238;2023-05-19T10:32:41;9.25;;;6.30;;
50689;SDS011;54375;48.298;11.238;2023-05-19T10:47:45;9.15;;;5.82;;
50689;SDS011;54375;48.298;11.238;2023-05-19T11:02:47;10.05;;;6.18;;
50689;SDS011;54375;48.298;11.238;2023-05-19T11:17:50;11.60;;;6.22;;
50689;SDS011;54375;48.298;11.238;2023-05-19T11:32:52;10.02;;;5.75;;
50689;SDS011;54375;48.298;11.238;2023-05-19T11:47:55;8.60;;;5.65;;
50689;SDS011;54375;48.298;11.238;2023-05-19T12:02:58;9.02;;;6.35;;
50689;SDS011;54375;48.298;11.238;2023-05-19T12:18:00;8.43;;;6.15;;
50689;SDS011;54375;48.298;11.238;2023-05-19T12:33:05;9.20;;;5.88;;
50689;SDS011;54375;48.298;11.238;2023-05-19T12:48:11;9.82;;;5.68;;
50689;SDS011;54375;48.298;11.238;2023-05-19T13:03:14;10.23;;;7.03;;
50689;SDS011;54375;48.298;11.238;2023-05-19T13:18:18;9.32;;;6.35;;
50689;SDS011;54375;48.298;11.238;2023-05-19T13:33:21;9.35;;;6.70;;
50689;SDS011;54375;48.298;11.238;2023-05-19T13:48:24;8.68;;;6.05;;
50689;SDS011;54375;48.298;11.238;2023-05-19T14:03:27;13.38;;;5.00;;
50689;SDS011;54375;48.298;11.238;2023-05-19T14:18:30;9.13;;;5.43;;
50689;SDS011;54375;48.298;11.238;2023-05-19T14:33:33;8.25;;;5.80;;
50689;SDS011;54375;48.298;11.238;2023-05-19T14:48:37;7.38;;;4.78;;
50689;SDS011;54375;48.298;11.238;2023-05-19T15:03:40;9.85;;;5.65;;
50689;SDS011;54375;48.298;11.238;2023-05-19T15:18:42;8.38;;;5.40;;
50689;SDS011;54375;48.298;11.238;2023-05-19T15:33:44;7.65;;;5.03;;
50689;SDS011;54375;48.298;11.238;2023-05-19T15:48:46;8.13;;;5.60;;
50689;SDS011;54375;48.298;11.238;2023-05-19T16:03:48;6.30;;;4.00;;
50689;SDS011;54375;48.298;11.238;2023-05-19T16:18:51;6.95;;;3.92;;
50689;SDS011;54375;48.298;11.238;2023-05-19T16:33:53;6.60;;;3.65;;
50689;SDS011;54375;48.298;11.238;2023-05-19T16:48:55;7.68;;;4.07;;
50689;SDS011;54375;48.298;11.238;2023-05-19T17:03:57;4.78;;;3.30;;
50689;SDS011;54375;48.298;11.238;2023-05-19T17:18:59;6.85;;;3.90;;
50689;SDS011;54375;48.298;11.238;2023-05-19T17:34:02;5.65;;;3.75;;
50689;SDS011;54375;48.298;11.238;2023-05-19T17:49:04;6.55;;;4.10;;
50689;SDS011;54375;48.298;11.238;2023-05-19T18:04:07;6.10;;;4.00;;
50689;SDS011;54375;48.298;11.238;2023-05-19T18:19:10;7.80;;;4.65;;
50689;SDS011;54375;48.298;11.238;2023-05-19T18:34:13;6.93;;;3.95;;
50689;SDS011;54375;48.298;11.238;2023-05-19T18:49:15;6.65;;;4.75;;
50689;SDS011;54375;48.298;11.238;2023-05-19T19:04:17;6.55;;;4.43;;
50689;SDS011;54375;48.298;11.238;2023-05-19T19:19:20;9.38;;;4.88;;
50689;SDS011;54375;48.298;11.238;2023-05-19T19:34:22;7.68;;;4.93;;
50689;SDS011;54375;48.298;11.238;2023-05-19T19:49:24;10.43;;;5.15;;
50689;SDS011;54375;48.298;11.238;2023-05-19T20:04:27;9.90;;;5.07;;
50689;SDS011;54375;48.298;11.238;2023-05-19T20:19:29;10.38;;;6.00;;
50689;SDS011;54375;48.298;11.238;2023-05-19T20:34:31;8.18;;;5.15;;
50689;SDS011;54375;48.298;11.238;2023-05-19T20:49:33;7.15;;;5.28;;
50689;SDS011;54375;48.298;11.238;2023-05-19T21:04:35;8.63;;;5.60;;
50689;SDS011;54375;48.298;11.238;2023-05-19T21:19:38;7.40;;;4.30;;
50689;SDS011;54375;48.298;11.238;2023-05-19T21:34:40;6.10;;;4.15;;
50689;SDS011;54375;48.298;11.238;2023-05-19T21:49:42;5.90;;;4.40;;
50689;SDS011;54375;48.298;11.238;2023-05-19T22:04:45;6.35;;;4.15;;
50689;SDS011;54375;48.298;11.238;2023-05-19T22:19:47;7.15;;;4.28;;
50689;SDS011;54375;48.298;11.238;2023-05-19T22:34:49;7.93;;;4.68;;
50689;SDS011;54375;48.298;11.238;2023-05-19T22:49:51;8.98;;;4.93;;
50689;SDS011;54375;48.298;11.238;2023-05-19T23:04:53;7.45;;;4.20;;
50689;SDS011;54375;48.298;11.238;2023-05-19T23:19:55;9.25;;;5.20;;
50689;SDS011;54375;48.298;11.238;2023-05-19T23:34:58;6.82;;;4.80;;
50689;SDS011;54375;48.298;11.238;2023-05-19T23:50:10;9.20;;;5.30;;
